createdAt,value
2023-01-09T00:02:10.161Z,17.00
2023-01-09T00:04:37.209Z,17.00
2023-01-09T00:07:04.545Z,17.30
2023-01-09T00:09:31.640Z,17.30
2023-01-09T00:11:58.761Z,17.10
2023-01-09T00:14:25.807Z,17.00
2023-01-09T00:16:55.426Z,16.90
2023-01-09T00:19:22.739Z,16.80
2023-01-09T00:21:49.646Z,17.00
2023-01-09T00:24:16.757Z,17.00
2023-01-09T00:26:43.694Z,17.10
2023-01-09T00:29:11.850Z,16.90
2023-01-09T00:31:38.811Z,17.00
2023-01-09T00:34:07.730Z,16.80
2023-01-09T00:36:34.661Z,16.70
2023-01-09T00:39:02.193Z,16.80
2023-01-09T00:41:56.366Z,16.80
2023-01-09T00:44:36.789Z,16.70
2023-01-09T00:47:10.990Z,16.80
2023-01-09T00:49:38.091Z,16.70
2023-01-09T00:52:06.743Z,16.70
2023-01-09T00:54:34.221Z,16.60
2023-01-09T00:57:01.414Z,16.50
2023-01-09T00:59:29.055Z,16.60
2023-01-09T01:01:56.474Z,16.60
2023-01-09T01:04:42.317Z,16.40
2023-01-09T01:07:27.762Z,16.50
2023-01-09T01:09:54.782Z,16.60
2023-01-09T01:12:21.767Z,16.80
2023-01-09T01:14:48.817Z,16.80
2023-01-09T01:17:15.869Z,16.70
2023-01-09T01:19:42.844Z,16.80
2023-01-09T01:22:09.774Z,16.70
2023-01-09T01:24:36.881Z,16.50
2023-01-09T01:27:03.952Z,16.60
2023-01-09T01:29:30.927Z,16.60
2023-01-09T01:31:57.891Z,16.70
2023-01-09T01:34:25.383Z,16.50
2023-01-09T01:36:52.309Z,16.60
2023-01-09T01:39:21.444Z,16.20
2023-01-09T01:41:48.418Z,16.30
2023-01-09T01:44:52.750Z,16.20
2023-01-09T01:47:21.030Z,16.20
2023-01-09T01:49:48.536Z,16.20
2023-01-09T01:52:17.584Z,16.00
2023-01-09T01:54:45.639Z,16.10
2023-01-09T01:57:12.853Z,16.30
2023-01-09T01:59:53.677Z,16.20
2023-01-09T02:02:23.584Z,16.20
2023-01-09T02:04:53.707Z,16.10
2023-01-09T02:07:20.786Z,16.20
2023-01-09T02:09:48.483Z,16.30
2023-01-09T02:12:23.835Z,16.20
2023-01-09T02:15:05.368Z,16.20
2023-01-09T02:17:50.934Z,16.20
2023-01-09T02:20:36.738Z,16.40
2023-01-09T02:23:17.889Z,16.50
2023-01-09T02:26:26.326Z,16.40
2023-01-09T02:29:28.808Z,16.30
2023-01-09T02:32:07.660Z,16.30
2023-01-09T02:35:00.246Z,16.30
2023-01-09T02:37:41.862Z,16.30
2023-01-09T02:40:40.056Z,16.30
2023-01-09T02:43:08.312Z,16.30
2023-01-09T02:45:35.421Z,16.30
2023-01-09T02:48:02.407Z,16.40
2023-01-09T02:50:50.556Z,16.70
2023-01-09T02:53:28.192Z,16.60
2023-01-09T02:56:35.668Z,16.50
2023-01-09T02:59:24.885Z,16.40
2023-01-09T03:02:04.614Z,16.20
2023-01-09T03:04:56.041Z,16.30
2023-01-09T03:07:48.260Z,16.30
2023-01-09T03:10:19.423Z,16.40
2023-01-09T03:12:50.538Z,16.30
2023-01-09T03:15:20.998Z,16.20
2023-01-09T03:17:50.724Z,15.90
2023-01-09T03:20:22.276Z,16.00
2023-01-09T03:22:55.192Z,16.20
2023-01-09T03:25:22.879Z,16.40
2023-01-09T03:27:54.154Z,16.40
2023-01-09T03:30:21.184Z,16.30
2023-01-09T03:32:48.167Z,16.50
2023-01-09T03:35:15.290Z,16.00
2023-01-09T03:37:42.249Z,16.10
2023-01-09T03:40:10.179Z,16.10
2023-01-09T03:42:37.364Z,16.10
2023-01-09T03:45:05.485Z,16.20
2023-01-09T03:47:32.424Z,16.10
2023-01-09T03:49:59.419Z,16.10
2023-01-09T03:52:26.443Z,16.30
2023-01-09T03:54:53.521Z,16.50
2023-01-09T03:57:20.459Z,16.50
2023-01-09T03:59:47.434Z,16.30
2023-01-09T04:02:14.519Z,16.50
2023-01-09T04:04:41.695Z,16.30
2023-01-09T04:07:08.719Z,16.20
2023-01-09T04:09:35.677Z,16.20
2023-01-09T04:12:02.699Z,16.30
2023-01-09T04:14:29.650Z,16.20
2023-01-09T04:16:56.705Z,16.40
2023-01-09T04:19:23.754Z,16.60
2023-01-09T04:21:50.700Z,16.50
2023-01-09T04:24:17.904Z,16.80
2023-01-09T04:26:44.887Z,17.00
2023-01-09T04:29:11.918Z,17.20
2023-01-09T04:31:38.927Z,17.20
2023-01-09T04:34:05.943Z,17.30
2023-01-09T04:36:34.731Z,17.40
2023-01-09T04:39:02.273Z,17.30
2023-01-09T04:41:47.597Z,17.40
2023-01-09T04:44:15.053Z,17.50
2023-01-09T04:46:42.017Z,17.40
2023-01-09T04:49:08.974Z,16.90
2023-01-09T04:51:35.942Z,16.90
2023-01-09T04:54:03.233Z,17.10
2023-01-09T04:56:30.333Z,17.10
2023-01-09T04:58:59.955Z,16.80
2023-01-09T05:01:27.046Z,16.80
2023-01-09T05:03:54.203Z,16.90
2023-01-09T05:06:21.368Z,16.90
2023-01-09T05:08:48.398Z,17.10
2023-01-09T05:11:15.520Z,17.10
2023-01-09T05:13:42.504Z,17.30
2023-01-09T05:16:09.783Z,17.30
2023-01-09T05:18:37.837Z,17.30
2023-01-09T05:21:04.891Z,17.40
2023-01-09T05:23:31.927Z,17.30
2023-01-09T05:25:58.871Z,17.50
2023-01-09T05:28:26.049Z,17.30
2023-01-09T05:30:53.097Z,17.30
2023-01-09T05:33:20.027Z,17.00
2023-01-09T05:35:47.109Z,17.20
2023-01-09T05:38:14.215Z,17.20
2023-01-09T05:40:41.133Z,17.20
2023-01-09T05:43:08.452Z,17.20
2023-01-09T05:45:35.671Z,17.20
2023-01-09T05:48:03.416Z,17.40
2023-01-09T05:50:30.517Z,17.20
2023-01-09T05:52:57.576Z,16.90
2023-01-09T05:55:24.572Z,16.50
2023-01-09T05:57:51.623Z,16.10
2023-01-09T06:00:19.372Z,15.80
2023-01-09T06:02:47.852Z,15.70
2023-01-09T06:05:14.865Z,15.60
2023-01-09T06:07:41.913Z,15.50
2023-01-09T06:10:12.982Z,15.00
2023-01-09T06:12:40.435Z,14.70
2023-01-09T06:15:09.125Z,14.60
2023-01-09T06:17:36.316Z,14.80
2023-01-09T06:20:03.892Z,15.00
2023-01-09T06:22:30.857Z,15.40
2023-01-09T06:24:57.811Z,15.80
2023-01-09T06:27:24.891Z,16.00
2023-01-09T06:29:52.028Z,16.10
2023-01-09T06:32:19.166Z,16.20
2023-01-09T06:34:46.179Z,16.20
2023-01-09T06:37:13.285Z,16.30
2023-01-09T06:39:40.324Z,16.40
2023-01-09T06:42:07.383Z,16.30
2023-01-09T06:44:36.630Z,16.10
2023-01-09T06:47:04.562Z,16.30
2023-01-09T06:49:32.046Z,16.40
2023-01-09T06:51:59.226Z,16.50
2023-01-09T06:54:28.628Z,16.70
2023-01-09T06:56:55.866Z,16.70
2023-01-09T06:59:22.843Z,16.70
2023-01-09T07:01:50.050Z,16.70
2023-01-09T07:04:18.088Z,16.80
2023-01-09T07:06:48.597Z,17.00
2023-01-09T07:09:15.980Z,16.80
2023-01-09T07:11:42.988Z,16.80
2023-01-09T07:14:09.967Z,16.60
2023-01-09T07:16:37.039Z,16.70
2023-01-09T07:19:04.018Z,16.80
2023-01-09T07:21:32.908Z,16.90
2023-01-09T07:24:00.127Z,17.10
2023-01-09T07:26:27.241Z,16.90
2023-01-09T07:28:54.699Z,16.90
2023-01-09T07:31:22.100Z,16.90
2023-01-09T07:33:49.140Z,16.90
2023-01-09T07:36:16.288Z,17.00
2023-01-09T07:38:43.330Z,17.00
2023-01-09T07:41:10.367Z,17.10
2023-01-09T07:43:38.896Z,17.10
2023-01-09T07:46:07.166Z,17.10
2023-01-09T07:48:34.471Z,17.00
2023-01-09T07:51:01.471Z,17.00
2023-01-09T07:53:28.538Z,17.10
2023-01-09T07:55:55.528Z,17.20
2023-01-09T07:58:22.569Z,17.20
2023-01-09T08:00:50.823Z,17.10
2023-01-09T08:03:17.832Z,17.00
2023-01-09T08:05:45.723Z,16.80
2023-01-09T08:08:14.908Z,16.90
2023-01-09T08:10:42.039Z,16.90
2023-01-09T08:13:09.026Z,17.00
2023-01-09T08:15:36.395Z,17.00
2023-01-09T08:18:03.424Z,17.00
2023-01-09T08:20:30.430Z,17.00
2023-01-09T08:22:57.532Z,17.00
2023-01-09T08:25:24.622Z,17.10
2023-01-09T08:27:51.680Z,17.30
2023-01-09T08:30:19.893Z,17.30
2023-01-09T08:32:51.799Z,17.20
2023-01-09T08:35:19.963Z,17.00
2023-01-09T08:37:48.470Z,16.80
2023-01-09T08:40:16.622Z,16.70
2023-01-09T08:43:02.609Z,16.80
2023-01-09T08:45:51.412Z,16.80
2023-01-09T08:48:18.404Z,16.70
2023-01-09T08:50:47.296Z,16.90
2023-01-09T08:53:15.529Z,16.90
2023-01-09T08:55:43.361Z,16.70
2023-01-09T08:58:10.579Z,16.60
2023-01-09T09:00:37.737Z,16.50
2023-01-09T09:03:05.107Z,16.30
2023-01-09T09:05:33.101Z,16.30
2023-01-09T09:08:00.259Z,16.50
2023-01-09T09:10:31.566Z,16.50
2023-01-09T09:12:59.394Z,16.60
2023-01-09T09:15:27.858Z,16.70
2023-01-09T09:17:57.674Z,16.70
2023-01-09T09:20:27.961Z,16.70
2023-01-09T09:22:55.470Z,16.40
2023-01-09T09:25:23.010Z,16.40
2023-01-09T09:27:50.202Z,16.40
2023-01-09T09:30:19.406Z,16.30
2023-01-09T09:32:46.712Z,16.00
2023-01-09T09:35:14.121Z,16.20
2023-01-09T09:37:41.944Z,16.30
2023-01-09T09:40:19.714Z,16.70
2023-01-09T09:43:20.075Z,16.70
2023-01-09T09:45:54.117Z,16.70
2023-01-09T09:48:37.900Z,16.70
2023-01-09T09:51:23.051Z,16.60
2023-01-09T09:54:13.999Z,16.80
2023-01-09T09:56:50.569Z,16.80
2023-01-09T09:59:26.817Z,16.70
2023-01-09T10:02:02.831Z,16.50
2023-01-09T10:04:33.355Z,16.60
2023-01-09T10:07:09.424Z,16.50
2023-01-09T10:09:57.654Z,16.30
2023-01-09T10:12:29.707Z,16.30
2023-01-09T10:14:59.459Z,16.30
2023-01-09T10:17:35.258Z,16.10
2023-01-09T10:20:54.899Z,16.10
2023-01-09T10:23:51.957Z,16.40
2023-01-09T10:26:47.720Z,16.20
2023-01-09T10:29:29.707Z,16.10
2023-01-09T10:32:16.856Z,16.30
2023-01-09T10:35:01.567Z,16.30
2023-01-09T10:37:45.400Z,16.40
2023-01-09T10:40:38.071Z,16.50
2023-01-09T10:43:08.223Z,16.40
2023-01-09T10:45:47.655Z,16.30
2023-01-09T10:48:30.389Z,16.30
2023-01-09T10:50:57.501Z,16.20
2023-01-09T10:53:38.700Z,16.10
2023-01-09T10:56:15.157Z,16.00
2023-01-09T10:58:42.065Z,15.90
2023-01-09T11:01:09.834Z,15.90
2023-01-09T11:03:38.465Z,15.90
2023-01-09T11:06:21.940Z,16.00
2023-01-09T11:08:52.104Z,16.10
2023-01-09T11:11:38.000Z,16.00
2023-01-09T11:14:31.125Z,16.10
2023-01-09T11:17:04.053Z,16.30
2023-01-09T11:19:33.468Z,16.60
2023-01-09T11:22:14.715Z,16.60
2023-01-09T11:24:42.039Z,16.80
2023-01-09T11:27:24.865Z,16.70
2023-01-09T11:30:20.087Z,16.80
2023-01-09T11:32:48.538Z,16.90
2023-01-09T11:35:28.228Z,17.00
2023-01-09T11:38:16.952Z,16.90
2023-01-09T11:40:58.291Z,16.80
2023-01-09T11:43:32.756Z,16.80
2023-01-09T11:46:03.091Z,16.80
2023-01-09T11:48:32.436Z,16.80
2023-01-09T11:51:01.377Z,16.90
2023-01-09T11:53:29.413Z,17.00
2023-01-09T11:56:01.137Z,17.10
2023-01-09T11:58:33.043Z,17.10
2023-01-09T12:01:26.561Z,17.00
2023-01-09T12:04:19.640Z,17.00
2023-01-09T12:07:09.654Z,17.00
2023-01-09T12:09:58.049Z,16.90
2023-01-09T12:12:57.218Z,16.90
2023-01-09T12:15:32.880Z,16.90
2023-01-09T12:18:23.922Z,17.10
2023-01-09T12:21:01.639Z,17.10
2023-01-09T12:23:40.074Z,16.90
2023-01-09T12:26:58.948Z,16.90
2023-01-09T12:29:44.530Z,17.00
2023-01-09T12:32:23.052Z,17.10
2023-01-09T12:35:21.621Z,17.00
2023-01-09T12:37:57.779Z,16.90
2023-01-09T12:40:57.560Z,16.90
2023-01-09T12:43:44.837Z,17.00
2023-01-09T12:46:23.332Z,17.00
2023-01-09T12:49:20.287Z,16.90
2023-01-09T12:52:05.477Z,17.00
2023-01-09T12:54:43.000Z,17.00
2023-01-09T12:57:21.686Z,17.00
2023-01-09T12:59:54.136Z,17.00
2023-01-09T13:05:51.294Z,17.10
2023-01-09T13:08:50.267Z,17.10
2023-01-09T13:11:28.211Z,17.10
2023-01-09T13:14:16.281Z,17.10
2023-01-09T13:16:48.572Z,17.10
2023-01-09T13:19:21.020Z,17.10
2023-01-09T13:21:48.886Z,17.10
2023-01-09T13:24:15.784Z,17.20
2023-01-09T13:26:56.503Z,17.10
2023-01-09T13:29:37.759Z,17.10
2023-01-09T13:32:23.600Z,17.10
2023-01-09T13:34:53.821Z,17.10
2023-01-09T13:37:25.827Z,17.20
2023-01-09T13:40:26.586Z,17.30
2023-01-09T13:43:06.168Z,17.40
2023-01-09T13:45:36.956Z,17.30
2023-01-09T13:48:10.971Z,17.20
2023-01-09T13:50:39.303Z,17.10
2023-01-09T13:53:19.157Z,17.20
2023-01-09T13:55:58.873Z,17.40
2023-01-09T13:58:39.690Z,17.30
2023-01-09T14:01:27.140Z,17.30
2023-01-09T14:04:27.662Z,17.10
2023-01-09T14:07:24.200Z,17.20
2023-01-09T14:09:55.914Z,17.20
2023-01-09T14:12:23.517Z,17.30
2023-01-09T14:14:53.852Z,17.30
2023-01-09T14:17:36.671Z,17.30
2023-01-09T14:20:09.277Z,17.40
2023-01-09T14:22:46.162Z,17.30
2023-01-09T14:25:26.851Z,17.30
2023-01-09T14:27:59.876Z,17.20
2023-01-09T14:30:26.955Z,17.30
2023-01-09T14:33:18.927Z,17.20
2023-01-09T14:35:48.624Z,17.30
2023-01-09T14:38:30.738Z,17.10
2023-01-09T14:41:21.413Z,17.20
2023-01-09T14:43:52.993Z,17.20
2023-01-09T14:46:20.934Z,17.20
2023-01-09T14:49:24.910Z,17.20
2023-01-09T14:51:53.538Z,17.20
2023-01-09T14:54:37.341Z,17.10
2023-01-09T14:57:29.948Z,17.30
2023-01-09T14:59:58.724Z,17.30
2023-01-09T15:02:28.103Z,17.20
2023-01-09T15:05:00.673Z,17.10
2023-01-09T15:07:34.264Z,17.10
2023-01-09T15:10:03.935Z,17.10
2023-01-09T15:12:32.457Z,17.20
2023-01-09T15:15:01.990Z,17.10
2023-01-09T15:17:36.069Z,17.20
2023-01-09T15:20:06.440Z,17.10
2023-01-09T15:22:36.395Z,17.10
2023-01-09T15:25:45.386Z,17.00
2023-01-09T15:28:32.576Z,16.90
2023-01-09T15:31:20.617Z,16.70
2023-01-09T15:33:48.703Z,16.70
2023-01-09T15:36:30.996Z,16.80
2023-01-09T15:38:59.463Z,16.80
2023-01-09T15:41:47.568Z,16.80
2023-01-09T15:44:30.341Z,16.80
2023-01-09T15:46:59.826Z,16.70
2023-01-09T15:49:27.282Z,16.70
2023-01-09T15:51:54.874Z,16.70
2023-01-09T15:54:32.803Z,16.70
2023-01-09T15:57:24.691Z,16.70
2023-01-09T15:59:52.612Z,16.60
2023-01-09T16:02:39.805Z,16.60
2023-01-09T16:05:09.613Z,16.60
2023-01-09T16:07:36.632Z,16.60
2023-01-09T16:10:03.995Z,16.60
2023-01-09T16:12:30.965Z,16.50
2023-01-09T16:15:00.537Z,16.50
2023-01-09T16:17:29.923Z,16.60
2023-01-09T16:20:13.894Z,16.70
2023-01-09T16:22:57.545Z,16.70
2023-01-09T16:25:34.522Z,16.60
2023-01-09T16:28:15.317Z,16.60
2023-01-09T16:31:00.754Z,16.70
2023-01-09T16:33:30.524Z,16.80
2023-01-09T16:35:58.777Z,16.70
2023-01-09T16:38:26.250Z,16.60
2023-01-09T16:41:19.142Z,16.60
2023-01-09T16:43:46.929Z,16.60
2023-01-09T16:46:15.666Z,16.50
2023-01-09T16:48:42.745Z,16.50
2023-01-09T16:51:18.523Z,16.50
2023-01-09T16:53:45.715Z,16.60
2023-01-09T16:56:17.507Z,16.50
2023-01-09T16:58:44.643Z,16.60
2023-01-09T17:01:13.500Z,16.60
2023-01-09T17:03:44.585Z,16.50
2023-01-09T17:06:28.883Z,16.60
2023-01-09T17:08:56.153Z,16.60
2023-01-09T17:11:31.550Z,16.50
2023-01-09T17:13:59.775Z,16.40
2023-01-09T17:16:27.973Z,16.50
2023-01-09T17:18:55.474Z,16.60
2023-01-09T17:21:25.486Z,16.50
2023-01-09T17:24:13.038Z,16.40
2023-01-09T17:27:01.184Z,16.50
2023-01-09T17:29:30.230Z,16.50
2023-01-09T17:31:58.018Z,16.30
2023-01-09T17:34:25.050Z,16.40
2023-01-09T17:36:55.466Z,16.30
2023-01-09T17:39:23.733Z,16.30
2023-01-09T17:41:50.662Z,16.30
2023-01-09T17:44:17.673Z,16.40
2023-01-09T17:46:45.066Z,16.50
2023-01-09T17:49:17.582Z,16.50
2023-01-09T17:51:45.261Z,16.50
2023-01-09T17:54:12.724Z,16.40
2023-01-09T17:56:43.544Z,16.30
2023-01-09T17:59:15.132Z,16.30
2023-01-09T18:01:43.778Z,16.40
2023-01-09T18:04:11.154Z,16.50
2023-01-09T18:06:38.309Z,16.30
2023-01-09T18:09:06.525Z,16.30
2023-01-09T18:11:34.054Z,16.30
2023-01-09T18:14:01.147Z,16.40
2023-01-09T18:16:28.820Z,16.50
2023-01-09T18:18:58.418Z,16.40
2023-01-09T18:21:27.338Z,16.20
2023-01-09T18:23:54.619Z,16.20
2023-01-09T18:26:21.785Z,16.10
2023-01-09T18:28:50.770Z,16.20
2023-01-09T18:31:22.740Z,16.20
2023-01-09T18:33:52.345Z,16.20
2023-01-09T18:36:21.504Z,16.20
2023-01-09T18:38:53.629Z,16.20
2023-01-09T18:41:21.466Z,16.10
2023-01-09T18:43:53.017Z,16.10
2023-01-09T18:46:24.107Z,16.00
2023-01-09T18:48:59.464Z,16.00
2023-01-09T18:51:27.726Z,16.20
2023-01-09T18:53:55.243Z,16.50
2023-01-09T18:56:23.339Z,16.50
2023-01-09T18:58:53.486Z,16.30
2023-01-09T19:01:20.523Z,16.30
2023-01-09T19:03:47.621Z,16.30
2023-01-09T19:06:14.584Z,16.20
2023-01-09T19:08:41.575Z,16.30
2023-01-09T19:11:08.721Z,16.20
2023-01-09T19:13:37.389Z,16.20
2023-01-09T19:16:06.529Z,16.20
2023-01-09T19:18:42.822Z,16.10
2023-01-09T19:21:13.819Z,16.00
2023-01-09T19:23:42.062Z,16.00
2023-01-09T19:26:15.404Z,15.90
2023-01-09T19:28:45.442Z,16.00
2023-01-09T19:31:16.630Z,16.00
2023-01-09T19:33:44.703Z,16.00
2023-01-09T19:36:11.733Z,15.90
2023-01-09T19:38:38.691Z,15.90
2023-01-09T19:41:14.872Z,15.80
2023-01-09T19:43:42.355Z,15.80
2023-01-09T19:46:19.175Z,15.80
2023-01-09T19:48:47.283Z,15.90
2023-01-09T19:51:15.857Z,16.00
2023-01-09T19:53:43.236Z,16.10
2023-01-09T19:56:13.145Z,15.90
2023-01-09T19:58:41.992Z,15.80
2023-01-09T20:01:11.960Z,15.70
2023-01-09T20:03:44.181Z,15.70
2023-01-09T20:06:14.431Z,15.60
2023-01-09T20:08:42.628Z,15.50
2023-01-09T20:11:09.600Z,15.50
2023-01-09T20:13:36.879Z,15.40
2023-01-09T20:16:05.636Z,15.30
2023-01-09T20:18:34.081Z,15.30
2023-01-09T20:21:01.949Z,15.20
2023-01-09T20:23:29.240Z,15.20
2023-01-09T20:25:57.443Z,15.20
2023-01-09T20:28:26.627Z,15.20
2023-01-09T20:30:54.429Z,15.20
2023-01-09T20:33:22.162Z,15.20
2023-01-09T20:35:49.262Z,15.30
2023-01-09T20:38:16.279Z,15.30
2023-01-09T20:40:45.959Z,15.20
2023-01-09T20:43:13.005Z,15.20
2023-01-09T20:45:40.380Z,15.10
2023-01-09T20:48:08.240Z,15.10
2023-01-09T20:50:35.301Z,15.00
2023-01-09T20:53:03.561Z,15.00
2023-01-09T20:55:30.587Z,14.90
2023-01-09T20:57:57.610Z,14.90
2023-01-09T21:00:27.494Z,14.90
2023-01-09T21:02:54.794Z,14.90
2023-01-09T21:05:21.706Z,14.80
2023-01-09T21:07:48.707Z,14.80
2023-01-09T21:10:15.990Z,14.80
2023-01-09T21:12:43.040Z,14.90
2023-01-09T21:15:15.125Z,14.90
2023-01-09T21:17:42.259Z,15.00
2023-01-09T21:20:12.754Z,15.00
2023-01-09T21:22:39.998Z,15.10
2023-01-09T21:25:07.697Z,15.20
2023-01-09T21:27:39.893Z,15.20
2023-01-09T21:30:08.449Z,15.30
2023-01-09T21:32:35.640Z,15.30
2023-01-09T21:35:05.281Z,15.40
2023-01-09T21:37:34.480Z,15.40
2023-01-09T21:40:01.676Z,15.40
2023-01-09T21:42:47.208Z,15.50
2023-01-09T21:45:34.720Z,15.50
2023-01-09T21:48:06.302Z,15.50
2023-01-09T21:50:34.555Z,15.50
2023-01-09T21:53:01.615Z,15.60
2023-01-09T21:55:29.027Z,15.50
2023-01-09T21:57:56.583Z,15.50
2023-01-09T22:00:24.799Z,15.50
2023-01-09T22:02:52.177Z,15.60
2023-01-09T22:05:19.603Z,15.60
2023-01-09T22:07:46.656Z,15.60
2023-01-09T22:10:13.863Z,15.50
2023-01-09T22:13:00.869Z,15.60
2023-01-09T22:15:27.838Z,15.60
2023-01-09T22:17:54.839Z,15.50
2023-01-09T22:20:21.953Z,15.50
2023-01-09T22:22:49.487Z,15.60
2023-01-09T22:25:16.752Z,15.60
2023-01-09T22:27:44.059Z,15.60
2023-01-09T22:30:12.097Z,15.60
2023-01-09T22:32:39.080Z,15.50
2023-01-09T22:35:06.936Z,15.60
2023-01-09T22:37:34.204Z,15.60
2023-01-09T22:40:01.179Z,15.60
2023-01-09T22:42:28.194Z,15.60
2023-01-09T22:44:55.189Z,15.70
2023-01-09T22:47:22.466Z,15.70
2023-01-09T22:49:53.563Z,15.70
2023-01-09T22:52:21.310Z,15.70
2023-01-09T22:54:48.883Z,15.70
2023-01-09T22:57:15.927Z,15.70
2023-01-09T22:59:42.915Z,15.70
2023-01-09T23:02:10.066Z,15.70
2023-01-09T23:04:37.239Z,15.80
2023-01-09T23:07:04.460Z,15.80
2023-01-09T23:09:31.723Z,15.80
2023-01-09T23:12:02.016Z,15.80
2023-01-09T23:14:31.048Z,15.80
2023-01-09T23:16:58.295Z,15.80
2023-01-09T23:19:26.256Z,15.80
2023-01-09T23:21:53.576Z,15.80
2023-01-09T23:24:21.081Z,15.80
2023-01-09T23:26:48.328Z,15.80
2023-01-09T23:29:15.763Z,15.80
2023-01-09T23:31:45.730Z,15.80
2023-01-09T23:34:18.119Z,15.80
2023-01-09T23:36:47.622Z,15.80
2023-01-09T23:39:14.649Z,15.80
2023-01-09T23:42:00.772Z,15.80
2023-01-09T23:44:28.086Z,15.70
2023-01-09T23:46:55.187Z,15.80
2023-01-09T23:49:22.546Z,15.80
2023-01-09T23:51:49.578Z,15.80
2023-01-09T23:54:17.239Z,15.70
2023-01-09T23:56:44.211Z,15.80
2023-01-09T23:59:13.969Z,15.70
